createdAt,value
2022-08-30T00:01:31.307Z,2.20
2022-08-30T00:03:59.473Z,2.03
2022-08-30T00:06:28.837Z,1.90
2022-08-30T00:08:57.254Z,1.75
2022-08-30T00:11:28.071Z,1.92
2022-08-30T00:13:58.312Z,2.10
2022-08-30T00:16:26.847Z,2.13
2022-08-30T00:18:54.755Z,1.70
2022-08-30T00:21:22.454Z,1.90
2022-08-30T00:23:49.539Z,1.98
2022-08-30T00:26:16.663Z,1.80
2022-08-30T00:28:43.666Z,1.90
2022-08-30T00:31:11.035Z,1.83
2022-08-30T00:33:45.085Z,2.33
2022-08-30T00:36:11.928Z,2.08
2022-08-30T00:38:39.054Z,2.20
2022-08-30T00:41:06.002Z,2.08
2022-08-30T00:43:36.820Z,1.90
2022-08-30T00:46:07.869Z,2.03
2022-08-30T00:48:41.208Z,2.10
2022-08-30T00:51:11.602Z,2.22
2022-08-30T00:53:44.989Z,1.80
2022-08-30T00:56:12.779Z,2.25
2022-08-30T00:58:46.079Z,2.55
2022-08-30T01:01:13.688Z,2.47
2022-08-30T01:03:42.034Z,2.70
2022-08-30T01:06:09.147Z,2.30
2022-08-30T01:08:35.974Z,1.95
2022-08-30T01:11:04.330Z,2.13
2022-08-30T01:13:34.515Z,2.13
2022-08-30T01:16:02.876Z,1.92
2022-08-30T01:18:32.097Z,2.00
2022-08-30T01:21:08.592Z,2.08
2022-08-30T01:23:39.491Z,2.10
2022-08-30T01:26:07.943Z,2.25
2022-08-30T01:28:35.503Z,2.40
2022-08-30T01:31:03.211Z,2.35
2022-08-30T01:33:30.668Z,2.15
2022-08-30T01:36:06.085Z,2.60
2022-08-30T01:38:43.948Z,2.80
2022-08-30T01:41:17.434Z,2.22
2022-08-30T01:43:45.103Z,2.40
2022-08-30T01:46:14.155Z,2.70
2022-08-30T01:48:42.550Z,2.50
2022-08-30T01:51:17.692Z,2.33
2022-08-30T01:53:45.976Z,2.67
2022-08-30T01:56:14.601Z,2.47
2022-08-30T01:58:41.859Z,2.42
2022-08-30T02:01:14.081Z,2.40
2022-08-30T02:03:44.829Z,2.33
2022-08-30T02:06:17.077Z,2.78
2022-08-30T02:08:44.936Z,2.70
2022-08-30T02:11:13.291Z,2.88
2022-08-30T02:13:42.513Z,2.80
2022-08-30T02:16:13.056Z,2.50
2022-08-30T02:18:41.024Z,2.90
2022-08-30T02:21:09.756Z,2.72
2022-08-30T02:23:37.174Z,2.80
2022-08-30T02:26:05.144Z,3.28
2022-08-30T02:28:32.154Z,2.67
2022-08-30T02:31:00.153Z,3.05
2022-08-30T02:33:27.677Z,2.92
2022-08-30T02:35:54.712Z,2.50
2022-08-30T02:38:21.811Z,2.90
2022-08-30T02:40:49.147Z,2.65
2022-08-30T02:43:17.168Z,2.67
2022-08-30T02:45:44.500Z,3.10
2022-08-30T02:48:11.797Z,3.05
2022-08-30T02:50:44.012Z,3.03
2022-08-30T02:53:14.103Z,2.63
2022-08-30T02:55:44.327Z,2.90
2022-08-30T02:58:11.507Z,3.28
2022-08-30T03:00:39.803Z,2.97
2022-08-30T03:03:07.642Z,3.22
2022-08-30T03:05:39.627Z,2.95
2022-08-30T03:08:08.707Z,2.83
2022-08-30T03:10:36.167Z,3.25
2022-08-30T03:13:03.812Z,3.35
2022-08-30T03:15:30.744Z,3.20
2022-08-30T03:17:58.864Z,3.70
2022-08-30T03:20:25.985Z,3.20
2022-08-30T03:22:53.228Z,4.03
2022-08-30T03:25:21.461Z,3.70
2022-08-30T03:27:48.798Z,3.70
2022-08-30T03:30:19.088Z,3.20
2022-08-30T03:32:46.988Z,3.28
2022-08-30T03:35:15.273Z,3.55
2022-08-30T03:37:42.136Z,3.80
2022-08-30T03:40:10.831Z,4.10
2022-08-30T03:42:38.100Z,3.88
2022-08-30T03:45:07.894Z,3.35
2022-08-30T03:47:34.997Z,3.20
2022-08-30T03:50:02.320Z,3.70
2022-08-30T03:52:29.146Z,3.63
2022-08-30T03:54:56.383Z,3.90
2022-08-30T03:57:24.583Z,3.47
2022-08-30T03:59:52.100Z,3.20
2022-08-30T04:02:19.854Z,3.17
2022-08-30T04:04:47.236Z,3.78
2022-08-30T04:07:14.115Z,3.25
2022-08-30T04:09:40.935Z,3.58
2022-08-30T04:12:08.311Z,3.35
2022-08-30T04:14:35.231Z,3.42
2022-08-30T04:17:02.039Z,3.70
2022-08-30T04:19:28.942Z,3.80
2022-08-30T04:21:57.465Z,4.07
2022-08-30T04:24:24.783Z,3.50
2022-08-30T04:26:51.644Z,3.83
2022-08-30T04:29:18.902Z,3.63
2022-08-30T04:31:46.299Z,3.50
2022-08-30T04:34:14.319Z,3.28
2022-08-30T04:36:41.325Z,2.90
2022-08-30T04:39:08.342Z,3.20
2022-08-30T04:41:37.634Z,3.17
2022-08-30T04:44:04.442Z,3.78
2022-08-30T04:46:31.282Z,3.00
2022-08-30T04:48:58.152Z,3.63
2022-08-30T04:51:25.048Z,3.15
2022-08-30T04:53:52.238Z,3.38
2022-08-30T04:56:22.901Z,3.20
2022-08-30T04:58:54.297Z,3.03
2022-08-30T05:01:28.362Z,3.53
2022-08-30T05:03:57.068Z,3.15
2022-08-30T05:06:27.716Z,3.50
2022-08-30T05:08:55.751Z,3.38
2022-08-30T05:11:23.674Z,3.15
2022-08-30T05:13:50.994Z,3.10
2022-08-30T05:16:19.611Z,3.10
2022-08-30T05:18:51.948Z,3.30
2022-08-30T05:21:28.346Z,2.90
2022-08-30T05:24:00.350Z,3.42
2022-08-30T05:26:32.661Z,3.45
2022-08-30T05:29:00.570Z,3.10
2022-08-30T05:31:34.686Z,3.03
2022-08-30T05:34:02.511Z,2.97
2022-08-30T05:36:32.330Z,2.55
2022-08-30T05:39:00.672Z,2.65
2022-08-30T05:41:28.455Z,3.00
2022-08-30T05:44:01.458Z,2.70
2022-08-30T05:49:20.472Z,2.60
2022-08-30T05:51:47.419Z,2.50
2022-08-30T05:54:15.698Z,2.22
2022-08-30T05:56:45.707Z,1.88
2022-08-30T05:59:14.084Z,2.60
2022-08-30T06:01:44.858Z,2.30
2022-08-30T06:04:13.828Z,2.20
2022-08-30T06:06:44.048Z,1.90
2022-08-30T06:09:13.734Z,2.30
2022-08-30T06:11:41.131Z,2.05
2022-08-30T06:14:08.565Z,2.30
2022-08-30T06:16:39.070Z,1.88
2022-08-30T06:19:08.735Z,2.05
2022-08-30T06:21:37.162Z,2.03
2022-08-30T06:24:07.064Z,2.10
2022-08-30T06:26:42.870Z,2.20
2022-08-30T06:29:17.731Z,2.13
2022-08-30T06:31:45.301Z,2.00
2022-08-30T06:34:12.413Z,1.83
2022-08-30T06:36:39.486Z,1.92
2022-08-30T06:39:07.923Z,2.00
2022-08-30T06:41:37.784Z,2.05
2022-08-30T06:44:06.191Z,2.15
2022-08-30T06:46:36.657Z,2.22
2022-08-30T06:49:05.700Z,1.90
2022-08-30T06:51:39.854Z,2.10
2022-08-30T06:54:10.853Z,1.90
2022-08-30T06:56:40.336Z,2.13
2022-08-30T06:59:10.124Z,1.70
2022-08-30T07:01:37.081Z,1.92
2022-08-30T07:04:04.919Z,1.75
2022-08-30T07:06:33.160Z,1.75
2022-08-30T07:09:00.020Z,1.60
2022-08-30T07:11:34.141Z,1.83
2022-08-30T07:14:01.975Z,1.60
2022-08-30T07:16:29.459Z,1.80
2022-08-30T07:18:58.996Z,1.80
2022-08-30T07:21:28.920Z,1.95
2022-08-30T07:23:58.752Z,1.15
2022-08-30T07:26:43.371Z,1.48
2022-08-30T07:29:10.851Z,1.30
2022-08-30T07:31:38.299Z,1.42
2022-08-30T07:34:07.570Z,1.27
2022-08-30T07:36:36.671Z,1.50
2022-08-30T07:39:06.165Z,1.38
2022-08-30T07:41:38.773Z,1.20
2022-08-30T07:44:08.450Z,1.13
2022-08-30T07:46:36.158Z,1.02
2022-08-30T07:49:04.066Z,1.30
2022-08-30T07:51:32.537Z,1.27
2022-08-30T07:54:00.805Z,1.30
2022-08-30T07:56:28.249Z,0.93
2022-08-30T07:58:55.110Z,0.93
2022-08-30T08:01:23.819Z,1.00
2022-08-30T08:03:51.668Z,0.95
2022-08-30T08:06:21.439Z,0.95
2022-08-30T08:08:49.380Z,1.17
2022-08-30T08:11:21.132Z,1.00
2022-08-30T08:13:53.204Z,1.05
2022-08-30T08:16:28.367Z,1.20
2022-08-30T08:18:55.882Z,1.02
2022-08-30T08:21:25.661Z,1.33
2022-08-30T08:23:52.807Z,1.00
2022-08-30T08:26:20.534Z,1.00
2022-08-30T08:28:47.954Z,1.00
2022-08-30T08:31:23.663Z,1.00
2022-08-30T08:33:57.052Z,1.00
2022-08-30T08:36:23.870Z,0.90
2022-08-30T08:38:50.894Z,1.10
2022-08-30T08:41:54.211Z,0.80
2022-08-30T08:44:44.361Z,0.93
2022-08-30T08:47:17.607Z,0.95
2022-08-30T08:49:48.103Z,0.93
2022-08-30T08:53:07.222Z,1.17
2022-08-30T08:55:34.459Z,1.10
2022-08-30T08:58:01.982Z,1.05
2022-08-30T09:00:30.204Z,0.82
2022-08-30T09:03:01.171Z,1.00
2022-08-30T09:05:36.533Z,1.00
2022-08-30T09:08:10.066Z,0.80
2022-08-30T09:10:54.176Z,1.10
2022-08-30T09:13:23.023Z,1.02
2022-08-30T09:15:54.758Z,0.80
2022-08-30T09:18:45.594Z,1.10
2022-08-30T09:21:15.170Z,0.98
2022-08-30T09:23:59.315Z,1.08
2022-08-30T09:26:37.135Z,1.00
2022-08-30T09:29:05.838Z,1.35
2022-08-30T09:32:10.043Z,1.30
2022-08-30T09:34:44.354Z,1.00
2022-08-30T09:37:31.289Z,1.63
2022-08-30T09:39:59.012Z,1.15
2022-08-30T09:42:29.736Z,1.20
2022-08-30T09:45:10.761Z,1.10
2022-08-30T09:47:43.511Z,1.20
2022-08-30T09:50:16.738Z,0.98
2022-08-30T09:53:19.910Z,1.00
2022-08-30T09:56:18.910Z,1.13
2022-08-30T09:59:34.933Z,1.25
2022-08-30T10:02:23.845Z,1.63
2022-08-30T10:05:32.898Z,1.40
2022-08-30T10:08:38.199Z,1.10
2022-08-30T10:11:33.456Z,1.33
2022-08-30T10:14:09.039Z,1.45
2022-08-30T10:16:44.332Z,0.95
2022-08-30T10:19:30.732Z,1.40
2022-08-30T10:22:07.116Z,1.10
2022-08-30T10:24:46.883Z,1.50
2022-08-30T10:27:26.876Z,1.20
2022-08-30T10:30:06.319Z,1.00
2022-08-30T10:32:42.251Z,1.40
2022-08-30T10:35:22.570Z,1.20
2022-08-30T10:38:03.812Z,1.33
2022-08-30T10:41:00.344Z,1.20
2022-08-30T10:43:59.086Z,1.30
2022-08-30T10:47:11.139Z,1.40
2022-08-30T10:49:49.735Z,1.40
2022-08-30T10:52:41.483Z,1.20
2022-08-30T10:55:16.867Z,1.27
2022-08-30T10:57:45.441Z,1.35
2022-08-30T11:00:24.803Z,1.08
2022-08-30T11:03:20.357Z,1.20
2022-08-30T11:06:25.106Z,1.25
2022-08-30T11:09:32.407Z,1.23
2022-08-30T11:12:32.375Z,1.20
2022-08-30T11:15:12.145Z,1.33
2022-08-30T11:17:54.346Z,1.23
2022-08-30T11:20:37.796Z,1.42
2022-08-30T11:23:36.219Z,1.50
2022-08-30T11:26:12.162Z,1.35
2022-08-30T11:28:47.359Z,1.52
2022-08-30T11:31:23.570Z,1.50
2022-08-30T11:33:57.194Z,1.35
2022-08-30T11:36:37.662Z,1.38
2022-08-30T11:39:06.823Z,1.58
2022-08-30T11:42:29.303Z,1.70
2022-08-30T11:45:26.777Z,1.55
2022-08-30T11:48:10.654Z,1.48
2022-08-30T11:50:59.882Z,1.35
2022-08-30T11:54:09.415Z,1.60
2022-08-30T11:57:11.473Z,1.40
2022-08-30T11:59:44.591Z,1.40
2022-08-30T12:02:54.719Z,1.20
2022-08-30T12:05:43.103Z,1.38
2022-08-30T12:08:24.197Z,1.13
2022-08-30T12:11:11.255Z,1.42
2022-08-30T12:13:38.012Z,1.67
2022-08-30T12:16:09.507Z,1.40
2022-08-30T12:18:39.517Z,1.33
2022-08-30T12:21:43.947Z,1.33
2022-08-30T12:24:22.723Z,1.05
2022-08-30T12:26:52.822Z,1.40
2022-08-30T12:29:22.798Z,1.63
2022-08-30T12:32:05.195Z,1.45
2022-08-30T12:34:37.964Z,1.40
2022-08-30T12:37:23.657Z,1.33
2022-08-30T12:40:22.441Z,1.23
2022-08-30T12:43:00.710Z,1.20
2022-08-30T12:45:52.155Z,1.40
2022-08-30T12:48:20.712Z,1.20
2022-08-30T12:50:56.565Z,1.27
2022-08-30T12:53:33.619Z,1.20
2022-08-30T12:56:15.248Z,1.30
2022-08-30T12:58:47.586Z,1.38
2022-08-30T13:01:19.612Z,1.30
2022-08-30T13:04:00.113Z,1.45
2022-08-30T13:06:51.631Z,1.42
2022-08-30T13:09:34.045Z,1.40
2022-08-30T13:12:21.235Z,1.35
2022-08-30T13:14:50.086Z,1.50
2022-08-30T13:17:19.281Z,1.50
2022-08-30T13:20:01.418Z,1.40
2022-08-30T13:22:41.634Z,1.35
2022-08-30T13:25:11.601Z,1.45
2022-08-30T13:27:39.929Z,1.40
2022-08-30T13:30:14.839Z,1.30
2022-08-30T13:32:42.301Z,1.20
2022-08-30T13:35:10.813Z,1.60
2022-08-30T13:37:50.027Z,1.60
2022-08-30T13:40:18.386Z,1.58
2022-08-30T13:42:49.246Z,1.40
2022-08-30T13:48:06.772Z,1.58
2022-08-30T13:50:33.960Z,1.63
2022-08-30T13:53:01.115Z,1.75
2022-08-30T13:55:29.090Z,1.50
2022-08-30T13:57:57.685Z,1.60
2022-08-30T14:00:26.213Z,1.63
2022-08-30T14:02:57.205Z,1.35
2022-08-30T14:11:11.998Z,1.77
2022-08-30T14:16:31.606Z,1.65
2022-08-30T14:19:00.702Z,1.50
2022-08-30T14:21:28.554Z,1.55
2022-08-30T14:23:57.789Z,1.50
2022-08-30T14:26:33.612Z,1.85
2022-08-30T14:29:09.068Z,1.20
2022-08-30T14:31:38.187Z,1.40
2022-08-30T14:34:06.624Z,1.20
2022-08-30T14:36:36.552Z,1.33
2022-08-30T14:39:08.558Z,1.52
2022-08-30T14:41:43.651Z,1.70
2022-08-30T14:46:39.166Z,1.20
2022-08-30T14:49:07.534Z,1.60
2022-08-30T14:51:37.080Z,1.65
2022-08-30T14:54:04.768Z,1.60
2022-08-30T14:56:31.773Z,1.67
2022-08-30T14:59:00.786Z,1.40
2022-08-30T15:01:29.965Z,1.50
2022-08-30T15:03:58.104Z,1.52
2022-08-30T15:06:26.395Z,1.67
2022-08-30T15:08:55.643Z,1.55
2022-08-30T15:11:24.756Z,1.42
2022-08-30T15:13:53.674Z,1.80
2022-08-30T15:16:27.922Z,2.00
2022-08-30T15:18:56.167Z,1.80
2022-08-30T15:21:37.326Z,1.48
2022-08-30T15:24:06.255Z,1.67
2022-08-30T15:26:33.569Z,1.80
2022-08-30T15:29:00.402Z,1.63
2022-08-30T15:31:29.688Z,1.70
2022-08-30T15:33:57.774Z,1.45
2022-08-30T15:36:27.688Z,1.90
2022-08-30T15:38:55.935Z,1.67
2022-08-30T15:41:24.219Z,1.90
2022-08-30T15:43:52.904Z,1.50
2022-08-30T15:46:29.604Z,1.60
2022-08-30T15:49:03.175Z,1.40
2022-08-30T15:51:41.134Z,1.60
2022-08-30T15:54:11.621Z,1.88
2022-08-30T15:56:39.906Z,1.80
2022-08-30T15:59:09.924Z,1.70
2022-08-30T16:01:38.292Z,1.58
2022-08-30T16:04:05.490Z,1.63
2022-08-30T16:06:37.919Z,1.92
2022-08-30T16:09:09.776Z,1.90
2022-08-30T16:11:37.591Z,1.70
2022-08-30T16:14:06.368Z,1.70
2022-08-30T16:16:33.877Z,1.85
2022-08-30T16:19:01.985Z,1.65
2022-08-30T16:21:32.485Z,1.90
2022-08-30T16:24:02.275Z,1.60
2022-08-30T16:26:31.784Z,1.45
2022-08-30T16:28:59.526Z,1.48
2022-08-30T16:31:29.525Z,1.50
2022-08-30T16:34:02.258Z,1.63
2022-08-30T16:36:30.293Z,1.60
2022-08-30T16:38:58.569Z,1.52
2022-08-30T16:41:25.862Z,1.70
2022-08-30T16:43:53.956Z,1.70
2022-08-30T16:46:23.410Z,1.67
2022-08-30T16:49:00.300Z,1.48
2022-08-30T16:51:29.894Z,1.58
2022-08-30T16:54:00.967Z,1.52
2022-08-30T16:56:30.941Z,1.77
2022-08-30T16:59:02.519Z,1.58
2022-08-30T17:01:37.771Z,1.70
2022-08-30T17:04:06.499Z,1.83
2022-08-30T17:06:33.311Z,1.30
2022-08-30T17:09:03.565Z,1.40
2022-08-30T17:11:32.866Z,1.55
2022-08-30T17:14:01.686Z,1.80
2022-08-30T17:16:30.324Z,1.65
2022-08-30T17:18:59.701Z,1.60
2022-08-30T17:21:29.583Z,1.77
2022-08-30T17:24:02.176Z,1.50
2022-08-30T17:26:35.631Z,1.70
2022-08-30T17:29:04.943Z,1.63
2022-08-30T17:31:31.833Z,1.65
2022-08-30T17:34:04.258Z,1.77
2022-08-30T17:36:36.843Z,1.55
2022-08-30T17:39:11.379Z,1.70
2022-08-30T17:41:49.781Z,1.48
2022-08-30T17:44:28.809Z,1.50
2022-08-30T17:46:57.101Z,1.38
2022-08-30T17:49:25.248Z,1.75
2022-08-30T17:51:56.329Z,1.45
2022-08-30T17:54:24.406Z,1.48
2022-08-30T17:56:52.527Z,1.35
2022-08-30T17:59:20.015Z,1.80
2022-08-30T18:01:53.871Z,1.63
2022-08-30T18:04:25.053Z,1.40
2022-08-30T18:06:52.598Z,1.52
2022-08-30T18:09:19.807Z,1.55
2022-08-30T18:11:47.350Z,1.48
2022-08-30T18:14:15.922Z,2.65
2022-08-30T18:16:50.281Z,1.65
2022-08-30T18:19:23.606Z,1.33
2022-08-30T18:21:51.592Z,1.60
2022-08-30T18:24:18.712Z,1.65
2022-08-30T18:26:46.678Z,1.50
2022-08-30T18:29:13.633Z,1.50
2022-08-30T18:31:40.547Z,1.58
2022-08-30T18:34:12.270Z,1.58
2022-08-30T18:36:41.342Z,1.40
2022-08-30T18:39:08.583Z,1.35
2022-08-30T18:41:42.920Z,1.50
2022-08-30T18:44:27.243Z,1.63
2022-08-30T18:46:56.379Z,1.90
2022-08-30T18:49:25.767Z,1.65
2022-08-30T18:51:53.202Z,1.95
2022-08-30T18:54:20.318Z,1.42
2022-08-30T18:56:47.329Z,1.70
2022-08-30T18:59:14.185Z,1.60
2022-08-30T19:01:42.739Z,2.40
2022-08-30T19:04:11.524Z,2.75
2022-08-30T19:06:50.082Z,2.28
2022-08-30T19:09:17.294Z,1.73
2022-08-30T19:11:45.146Z,1.80
2022-08-30T19:14:12.135Z,2.20
2022-08-30T19:16:41.268Z,1.85
2022-08-30T19:19:10.210Z,2.45
2022-08-30T19:21:39.888Z,1.75
2022-08-30T19:24:07.372Z,2.08
2022-08-30T19:26:36.195Z,1.80
2022-08-30T19:29:05.107Z,1.85
2022-08-30T19:31:32.295Z,1.67
2022-08-30T19:33:59.615Z,1.90
2022-08-30T19:36:29.127Z,1.70
2022-08-30T19:38:56.394Z,1.73
2022-08-30T19:41:24.262Z,2.03
2022-08-30T19:43:51.523Z,2.17
2022-08-30T19:46:18.511Z,1.70
2022-08-30T19:48:45.428Z,2.13
2022-08-30T19:51:15.283Z,1.90
2022-08-30T19:53:43.337Z,1.73
2022-08-30T19:56:11.000Z,1.83
2022-08-30T19:58:38.093Z,1.90
2022-08-30T20:01:11.852Z,1.70
2022-08-30T20:03:52.875Z,2.03
2022-08-30T20:06:24.168Z,1.95
2022-08-30T20:08:51.003Z,1.90
2022-08-30T20:11:23.473Z,2.00
2022-08-30T20:13:50.375Z,1.77
2022-08-30T20:16:17.762Z,2.63
2022-08-30T20:18:45.689Z,2.00
2022-08-30T20:21:14.670Z,2.30
2022-08-30T20:23:43.197Z,2.03
2022-08-30T20:26:11.926Z,2.33
2022-08-30T20:28:40.515Z,2.03
2022-08-30T20:31:11.272Z,2.08
2022-08-30T20:33:39.327Z,1.92
2022-08-30T20:36:09.959Z,2.05
2022-08-30T20:38:38.240Z,2.00
2022-08-30T20:41:12.626Z,2.08
2022-08-30T20:43:40.537Z,1.90
2022-08-30T20:46:13.893Z,1.55
2022-08-30T20:48:42.373Z,2.22
2022-08-30T20:51:17.421Z,2.20
2022-08-30T20:53:45.136Z,1.92
2022-08-30T20:56:15.552Z,1.67
2022-08-30T20:58:43.263Z,2.00
2022-08-30T21:01:13.958Z,2.03
2022-08-30T21:03:41.997Z,1.95
2022-08-30T21:06:09.340Z,1.83
2022-08-30T21:08:36.171Z,1.75
2022-08-30T21:11:03.453Z,2.05
2022-08-30T21:13:30.867Z,1.90
2022-08-30T21:16:03.793Z,2.00
2022-08-30T21:18:36.784Z,2.25
2022-08-30T21:21:22.330Z,2.30
2022-08-30T21:26:18.092Z,2.00
2022-08-30T21:28:53.825Z,1.90
2022-08-30T21:31:25.378Z,2.10
2022-08-30T21:33:54.467Z,2.38
2022-08-30T21:36:41.786Z,2.20
2022-08-30T21:39:10.565Z,2.28
2022-08-30T21:41:39.045Z,1.92
2022-08-30T21:44:11.562Z,2.13
2022-08-30T21:46:39.602Z,2.50
2022-08-30T21:49:09.876Z,2.15
2022-08-30T21:51:42.115Z,2.08
2022-08-30T21:54:11.184Z,1.85
2022-08-30T21:56:41.365Z,2.30
2022-08-30T21:59:09.918Z,2.58
2022-08-30T22:01:38.596Z,2.63
2022-08-30T22:04:08.834Z,2.60
2022-08-30T22:06:38.248Z,2.83
2022-08-30T22:09:09.081Z,2.60
2022-08-30T22:11:37.418Z,2.70
2022-08-30T22:14:05.907Z,3.05
2022-08-30T22:16:33.409Z,2.60
2022-08-30T22:19:01.785Z,3.03
2022-08-30T22:21:32.223Z,2.42
2022-08-30T22:23:59.855Z,2.50
2022-08-30T22:26:27.300Z,2.88
2022-08-30T22:28:55.204Z,2.47
2022-08-30T22:31:23.796Z,2.42
2022-08-30T22:33:52.866Z,2.85
2022-08-30T22:36:33.080Z,2.80
2022-08-30T22:39:01.769Z,2.40
2022-08-30T22:41:31.710Z,2.63
2022-08-30T22:43:59.035Z,2.70
2022-08-30T22:46:33.881Z,2.40
2022-08-30T22:49:04.898Z,2.63
2022-08-30T22:51:32.368Z,2.40
2022-08-30T22:54:00.967Z,2.30
2022-08-30T22:56:28.850Z,2.30
2022-08-30T22:58:56.159Z,2.58
2022-08-30T23:01:29.650Z,2.25
2022-08-30T23:03:58.026Z,2.17
2022-08-30T23:06:26.067Z,2.50
2022-08-30T23:08:52.973Z,2.30
2022-08-30T23:11:20.877Z,3.20
2022-08-30T23:13:48.217Z,2.17
2022-08-30T23:16:16.810Z,2.17
2022-08-30T23:18:46.260Z,2.28
2022-08-30T23:21:23.372Z,2.00
2022-08-30T23:24:11.218Z,1.98
2022-08-30T23:27:00.208Z,2.20
2022-08-30T23:29:46.183Z,1.85
2022-08-30T23:32:33.046Z,1.90
2022-08-30T23:35:18.790Z,1.83
2022-08-30T23:38:05.563Z,2.20
2022-08-30T23:40:51.310Z,1.67
2022-08-30T23:43:36.863Z,1.88
2022-08-30T23:49:09.580Z,2.17
2022-08-30T23:51:56.401Z,1.90
2022-08-30T23:54:43.368Z,1.98
2022-08-30T23:57:28.997Z,2.60
